sensor_id;sensor_type;location;lat;lon;timestamp;P1;durP1;ratioP1;P2;durP2;ratioP2
8183;SDS011;4133;48.752;9.088;2022-11-15T00:02:08;3.13;;;2.30;;
8183;SDS011;4133;48.752;9.088;2022-11-15T00:04:33;4.00;;;2.40;;
8183;SDS011;4133;48.752;9.088;2022-11-15T00:06:59;4.10;;;2.30;;
8183;SDS011;4133;48.752;9.088;2022-11-15T00:09:26;3.73;;;2.40;;
8183;SDS011;4133;48.752;9.088;2022-11-15T00:11:51;3.50;;;2.37;;
8183;SDS011;4133;48.752;9.088;2022-11-15T00:14:17;4.97;;;2.80;;
8183;SDS011;4133;48.752;9.088;2022-11-15T00:16:43;3.37;;;2.70;;
8183;SDS011;4133;48.752;9.088;2022-11-15T00:19:09;9.37;;;2.53;;
8183;SDS011;4133;48.752;9.088;2022-11-15T00:21:35;3.83;;;2.57;;
8183;SDS011;4133;48.752;9.088;2022-11-15T00:26:57;3.17;;;2.20;;
8183;SDS011;4133;48.752;9.088;2022-11-15T00:29:24;3.60;;;2.17;;
8183;SDS011;4133;48.752;9.088;2022-11-15T00:31:50;5.17;;;2.27;;
8183;SDS011;4133;48.752;9.088;2022-11-15T00:34:16;2.97;;;2.03;;
8183;SDS011;4133;48.752;9.088;2022-11-15T00:36:42;3.17;;;2.10;;
8183;SDS011;4133;48.752;9.088;2022-11-15T00:39:08;2.73;;;2.23;;
8183;SDS011;4133;48.752;9.088;2022-11-15T00:41:34;4.43;;;2.37;;
8183;SDS011;4133;48.752;9.088;2022-11-15T00:44:00;3.37;;;2.40;;
8183;SDS011;4133;48.752;9.088;2022-11-15T00:46:26;2.80;;;2.50;;
8183;SDS011;4133;48.752;9.088;2022-11-15T00:48:52;3.23;;;2.10;;
8183;SDS011;4133;48.752;9.088;2022-11-15T00:51:18;5.80;;;2.50;;
8183;SDS011;4133;48.752;9.088;2022-11-15T00:53:44;2.73;;;2.23;;
8183;SDS011;4133;48.752;9.088;2022-11-15T00:56:10;2.80;;;2.30;;
8183;SDS011;4133;48.752;9.088;2022-11-15T00:58:36;2.90;;;2.40;;
8183;SDS011;4133;48.752;9.088;2022-11-15T01:01:09;2.30;;;2.10;;
8183;SDS011;4133;48.752;9.088;2022-11-15T01:03:36;2.83;;;2.00;;
8183;SDS011;4133;48.752;9.088;2022-11-15T01:06:02;4.07;;;2.07;;
8183;SDS011;4133;48.752;9.088;2022-11-15T01:08:28;5.20;;;2.17;;
8183;SDS011;4133;48.752;9.088;2022-11-15T01:10:54;3.17;;;2.20;;
8183;SDS011;4133;48.752;9.088;2022-11-15T01:13:20;4.20;;;2.00;;
8183;SDS011;4133;48.752;9.088;2022-11-15T01:15:46;3.00;;;2.37;;
8183;SDS011;4133;48.752;9.088;2022-11-15T01:18:12;2.30;;;2.10;;
8183;SDS011;4133;48.752;9.088;2022-11-15T01:20:41;2.70;;;2.10;;
8183;SDS011;4133;48.752;9.088;2022-11-15T01:23:14;3.10;;;2.10;;
8183;SDS011;4133;48.752;9.088;2022-11-15T01:25:40;3.23;;;2.40;;
8183;SDS011;4133;48.752;9.088;2022-11-15T01:28:06;3.67;;;2.10;;
8183;SDS011;4133;48.752;9.088;2022-11-15T01:30:32;2.20;;;2.00;;
8183;SDS011;4133;48.752;9.088;2022-11-15T01:32:58;4.07;;;2.10;;
8183;SDS011;4133;48.752;9.088;2022-11-15T01:35:24;3.37;;;2.20;;
8183;SDS011;4133;48.752;9.088;2022-11-15T01:37:50;2.27;;;2.07;;
8183;SDS011;4133;48.752;9.088;2022-11-15T01:40:16;3.23;;;2.10;;
8183;SDS011;4133;48.752;9.088;2022-11-15T01:42:42;3.33;;;2.50;;
8183;SDS011;4133;48.752;9.088;2022-11-15T01:45:12;3.93;;;2.10;;
8183;SDS011;4133;48.752;9.088;2022-11-15T01:47:40;2.67;;;1.97;;
8183;SDS011;4133;48.752;9.088;2022-11-15T01:50:09;2.53;;;2.10;;
8183;SDS011;4133;48.752;9.088;2022-11-15T01:52:36;3.73;;;2.57;;
8183;SDS011;4133;48.752;9.088;2022-11-15T01:55:25;2.20;;;2.00;;
8183;SDS011;4133;48.752;9.088;2022-11-15T01:57:50;5.93;;;2.40;;
8183;SDS011;4133;48.752;9.088;2022-11-15T02:00:16;5.03;;;2.30;;
8183;SDS011;4133;48.752;9.088;2022-11-15T02:02:43;3.07;;;2.13;;
8183;SDS011;4133;48.752;9.088;2022-11-15T02:05:09;2.67;;;1.90;;
8183;SDS011;4133;48.752;9.088;2022-11-15T02:07:35;6.37;;;2.53;;
8183;SDS011;4133;48.752;9.088;2022-11-15T02:10:03;3.03;;;2.40;;
8183;SDS011;4133;48.752;9.088;2022-11-15T02:12:30;2.37;;;2.00;;
8183;SDS011;4133;48.752;9.088;2022-11-15T02:14:56;4.67;;;2.30;;
8183;SDS011;4133;48.752;9.088;2022-11-15T02:20:20;3.37;;;2.30;;
8183;SDS011;4133;48.752;9.088;2022-11-15T02:33:03;5.13;;;2.10;;
8183;SDS011;4133;48.752;9.088;2022-11-15T02:41:04;1.73;;;1.63;;
8183;SDS011;4133;48.752;9.088;2022-11-15T02:43:36;3.30;;;2.10;;
8183;SDS011;4133;48.752;9.088;2022-11-15T02:46:38;2.90;;;2.27;;
8183;SDS011;4133;48.752;9.088;2022-11-15T02:49:24;3.97;;;2.07;;
8183;SDS011;4133;48.752;9.088;2022-11-15T02:51:51;2.97;;;2.03;;
8183;SDS011;4133;48.752;9.088;2022-11-15T02:54:21;3.30;;;1.80;;
8183;SDS011;4133;48.752;9.088;2022-11-15T02:56:47;4.00;;;1.87;;
8183;SDS011;4133;48.752;9.088;2022-11-15T03:07:29;2.93;;;2.20;;
8183;SDS011;4133;48.752;9.088;2022-11-15T03:10:12;2.40;;;2.20;;
8183;SDS011;4133;48.752;9.088;2022-11-15T03:12:43;2.77;;;1.83;;
8183;SDS011;4133;48.752;9.088;2022-11-15T03:15:17;4.20;;;2.20;;
8183;SDS011;4133;48.752;9.088;2022-11-15T03:17:55;2.80;;;2.07;;
8183;SDS011;4133;48.752;9.088;2022-11-15T03:20:21;2.50;;;1.87;;
8183;SDS011;4133;48.752;9.088;2022-11-15T03:23:06;4.33;;;2.00;;
8183;SDS011;4133;48.752;9.088;2022-11-15T03:25:34;3.47;;;2.00;;
8183;SDS011;4133;48.752;9.088;2022-11-15T03:28:03;3.53;;;2.10;;
8183;SDS011;4133;48.752;9.088;2022-11-15T03:30:31;2.10;;;2.00;;
8183;SDS011;4133;48.752;9.088;2022-11-15T03:32:58;3.30;;;2.10;;
8183;SDS011;4133;48.752;9.088;2022-11-15T03:35:27;3.27;;;1.80;;
8183;SDS011;4133;48.752;9.088;2022-11-15T03:40:28;4.57;;;2.10;;
8183;SDS011;4133;48.752;9.088;2022-11-15T03:43:04;3.10;;;2.00;;
8183;SDS011;4133;48.752;9.088;2022-11-15T03:45:34;2.57;;;1.97;;
8183;SDS011;4133;48.752;9.088;2022-11-15T03:48:02;2.43;;;1.83;;
8183;SDS011;4133;48.752;9.088;2022-11-15T03:50:30;2.67;;;1.70;;
8183;SDS011;4133;48.752;9.088;2022-11-15T03:52:57;5.80;;;2.07;;
8183;SDS011;4133;48.752;9.088;2022-11-15T03:55:24;4.87;;;2.40;;
8183;SDS011;4133;48.752;9.088;2022-11-15T03:57:50;2.80;;;2.00;;
8183;SDS011;4133;48.752;9.088;2022-11-15T04:00:17;3.33;;;2.10;;
8183;SDS011;4133;48.752;9.088;2022-11-15T04:02:43;3.07;;;1.90;;
8183;SDS011;4133;48.752;9.088;2022-11-15T04:05:09;6.67;;;2.17;;
8183;SDS011;4133;48.752;9.088;2022-11-15T04:07:36;3.23;;;2.00;;
8183;SDS011;4133;48.752;9.088;2022-11-15T04:10:02;4.40;;;2.20;;
8183;SDS011;4133;48.752;9.088;2022-11-15T04:12:36;5.00;;;2.07;;
8183;SDS011;4133;48.752;9.088;2022-11-15T04:15:06;3.77;;;2.13;;
8183;SDS011;4133;48.752;9.088;2022-11-15T04:20:03;3.23;;;2.00;;
8183;SDS011;4133;48.752;9.088;2022-11-15T04:25:41;2.43;;;1.83;;
8183;SDS011;4133;48.752;9.088;2022-11-15T04:28:07;1.83;;;1.50;;
8183;SDS011;4133;48.752;9.088;2022-11-15T04:30:33;2.23;;;1.70;;
8183;SDS011;4133;48.752;9.088;2022-11-15T04:32:59;2.63;;;1.70;;
8183;SDS011;4133;48.752;9.088;2022-11-15T04:35:26;2.27;;;1.67;;
8183;SDS011;4133;48.752;9.088;2022-11-15T04:37:52;3.17;;;1.83;;
8183;SDS011;4133;48.752;9.088;2022-11-15T04:40:18;4.40;;;1.73;;
8183;SDS011;4133;48.752;9.088;2022-11-15T04:42:44;2.20;;;1.90;;
8183;SDS011;4133;48.752;9.088;2022-11-15T04:45:10;2.13;;;1.57;;
8183;SDS011;4133;48.752;9.088;2022-11-15T04:47:36;4.37;;;1.80;;
8183;SDS011;4133;48.752;9.088;2022-11-15T04:50:02;1.83;;;1.57;;
8183;SDS011;4133;48.752;9.088;2022-11-15T04:52:28;2.80;;;1.57;;
8183;SDS011;4133;48.752;9.088;2022-11-15T04:54:54;1.70;;;1.50;;
8183;SDS011;4133;48.752;9.088;2022-11-15T04:57:20;3.07;;;1.80;;
8183;SDS011;4133;48.752;9.088;2022-11-15T04:59:46;2.73;;;1.70;;
8183;SDS011;4133;48.752;9.088;2022-11-15T05:02:12;4.43;;;2.30;;
8183;SDS011;4133;48.752;9.088;2022-11-15T05:04:39;1.80;;;1.60;;
8183;SDS011;4133;48.752;9.088;2022-11-15T05:07:05;4.70;;;2.00;;
8183;SDS011;4133;48.752;9.088;2022-11-15T05:09:31;2.87;;;1.77;;
8183;SDS011;4133;48.752;9.088;2022-11-15T05:11:57;1.80;;;1.70;;
8183;SDS011;4133;48.752;9.088;2022-11-15T05:14:23;3.63;;;1.97;;
8183;SDS011;4133;48.752;9.088;2022-11-15T05:16:49;3.83;;;1.80;;
8183;SDS011;4133;48.752;9.088;2022-11-15T05:19:15;3.00;;;1.70;;
8183;SDS011;4133;48.752;9.088;2022-11-15T05:21:41;4.27;;;1.97;;
8183;SDS011;4133;48.752;9.088;2022-11-15T05:24:09;2.00;;;1.80;;
8183;SDS011;4133;48.752;9.088;2022-11-15T05:26:35;2.90;;;1.97;;
8183;SDS011;4133;48.752;9.088;2022-11-15T05:29:02;2.00;;;1.80;;
8183;SDS011;4133;48.752;9.088;2022-11-15T05:31:28;2.37;;;1.80;;
8183;SDS011;4133;48.752;9.088;2022-11-15T05:33:54;1.93;;;1.73;;
8183;SDS011;4133;48.752;9.088;2022-11-15T05:36:24;2.67;;;1.73;;
8183;SDS011;4133;48.752;9.088;2022-11-15T05:38:52;2.43;;;1.90;;
8183;SDS011;4133;48.752;9.088;2022-11-15T05:41:19;3.83;;;2.00;;
8183;SDS011;4133;48.752;9.088;2022-11-15T05:43:46;2.97;;;1.53;;
8183;SDS011;4133;48.752;9.088;2022-11-15T05:46:13;4.13;;;1.60;;
8183;SDS011;4133;48.752;9.088;2022-11-15T05:48:40;3.07;;;1.67;;
8183;SDS011;4133;48.752;9.088;2022-11-15T05:51:07;3.50;;;2.00;;
8183;SDS011;4133;48.752;9.088;2022-11-15T05:53:33;2.40;;;1.73;;
8183;SDS011;4133;48.752;9.088;2022-11-15T05:56:00;2.00;;;1.73;;
8183;SDS011;4133;48.752;9.088;2022-11-15T05:58:26;2.33;;;1.80;;
8183;SDS011;4133;48.752;9.088;2022-11-15T06:00:52;4.73;;;1.80;;
8183;SDS011;4133;48.752;9.088;2022-11-15T06:03:19;2.03;;;1.80;;
8183;SDS011;4133;48.752;9.088;2022-11-15T06:05:45;2.20;;;2.00;;
8183;SDS011;4133;48.752;9.088;2022-11-15T06:08:11;2.27;;;1.53;;
8183;SDS011;4133;48.752;9.088;2022-11-15T06:10:37;3.83;;;1.80;;
8183;SDS011;4133;48.752;9.088;2022-11-15T06:13:04;3.20;;;1.83;;
8183;SDS011;4133;48.752;9.088;2022-11-15T06:15:31;2.77;;;1.77;;
8183;SDS011;4133;48.752;9.088;2022-11-15T06:17:58;4.13;;;1.70;;
8183;SDS011;4133;48.752;9.088;2022-11-15T06:20:25;1.80;;;1.70;;
8183;SDS011;4133;48.752;9.088;2022-11-15T06:23:01;3.97;;;1.63;;
8183;SDS011;4133;48.752;9.088;2022-11-15T06:25:28;1.93;;;1.60;;
8183;SDS011;4133;48.752;9.088;2022-11-15T06:27:55;2.60;;;1.80;;
8183;SDS011;4133;48.752;9.088;2022-11-15T06:30:21;8.20;;;1.97;;
8183;SDS011;4133;48.752;9.088;2022-11-15T06:32:47;3.73;;;2.10;;
8183;SDS011;4133;48.752;9.088;2022-11-15T06:35:13;4.00;;;1.73;;
8183;SDS011;4133;48.752;9.088;2022-11-15T06:37:40;4.80;;;1.90;;
8183;SDS011;4133;48.752;9.088;2022-11-15T06:40:07;3.50;;;2.20;;
8183;SDS011;4133;48.752;9.088;2022-11-15T06:42:33;4.07;;;2.00;;
8183;SDS011;4133;48.752;9.088;2022-11-15T06:44:59;3.70;;;1.93;;
8183;SDS011;4133;48.752;9.088;2022-11-15T06:47:25;5.47;;;1.90;;
8183;SDS011;4133;48.752;9.088;2022-11-15T06:49:51;3.47;;;1.97;;
8183;SDS011;4133;48.752;9.088;2022-11-15T06:52:17;2.83;;;1.90;;
8183;SDS011;4133;48.752;9.088;2022-11-15T06:54:44;5.10;;;2.00;;
8183;SDS011;4133;48.752;9.088;2022-11-15T06:57:10;2.37;;;2.17;;
8183;SDS011;4133;48.752;9.088;2022-11-15T06:59:36;2.87;;;2.00;;
8183;SDS011;4133;48.752;9.088;2022-11-15T07:02:02;2.10;;;1.90;;
8183;SDS011;4133;48.752;9.088;2022-11-15T07:04:28;7.87;;;2.30;;
8183;SDS011;4133;48.752;9.088;2022-11-15T07:06:54;3.53;;;2.47;;
8183;SDS011;4133;48.752;9.088;2022-11-15T07:09:20;4.70;;;2.00;;
8183;SDS011;4133;48.752;9.088;2022-11-15T07:11:46;2.43;;;1.80;;
8183;SDS011;4133;48.752;9.088;2022-11-15T07:14:12;5.93;;;2.30;;
8183;SDS011;4133;48.752;9.088;2022-11-15T07:16:38;3.77;;;2.10;;
8183;SDS011;4133;48.752;9.088;2022-11-15T07:19:04;3.73;;;2.13;;
8183;SDS011;4133;48.752;9.088;2022-11-15T07:21:30;6.67;;;2.63;;
8183;SDS011;4133;48.752;9.088;2022-11-15T07:24:08;4.53;;;2.13;;
8183;SDS011;4133;48.752;9.088;2022-11-15T07:26:34;8.03;;;2.90;;
8183;SDS011;4133;48.752;9.088;2022-11-15T07:29:00;9.20;;;3.40;;
8183;SDS011;4133;48.752;9.088;2022-11-15T07:31:26;9.93;;;3.23;;
8183;SDS011;4133;48.752;9.088;2022-11-15T07:33:52;9.97;;;3.10;;
8183;SDS011;4133;48.752;9.088;2022-11-15T07:39:20;10.67;;;3.77;;
8183;SDS011;4133;48.752;9.088;2022-11-15T07:41:46;14.30;;;4.40;;
8183;SDS011;4133;48.752;9.088;2022-11-15T07:44:13;9.90;;;2.77;;
8183;SDS011;4133;48.752;9.088;2022-11-15T07:46:39;6.80;;;2.40;;
8183;SDS011;4133;48.752;9.088;2022-11-15T07:49:05;7.40;;;2.53;;
8183;SDS011;4133;48.752;9.088;2022-11-15T07:51:31;53.33;;;11.40;;
8183;SDS011;4133;48.752;9.088;2022-11-15T07:53:57;52.40;;;11.00;;
8183;SDS011;4133;48.752;9.088;2022-11-15T07:56:23;58.77;;;10.30;;
8183;SDS011;4133;48.752;9.088;2022-11-15T07:58:49;37.97;;;7.53;;
8183;SDS011;4133;48.752;9.088;2022-11-15T08:01:15;27.17;;;5.80;;
8183;SDS011;4133;48.752;9.088;2022-11-15T08:03:41;10.60;;;3.07;;
8183;SDS011;4133;48.752;9.088;2022-11-15T08:06:07;9.97;;;2.30;;
8183;SDS011;4133;48.752;9.088;2022-11-15T08:08:33;4.47;;;2.30;;
8183;SDS011;4133;48.752;9.088;2022-11-15T08:10:59;3.57;;;2.17;;
8183;SDS011;4133;48.752;9.088;2022-11-15T08:13:25;1.73;;;1.60;;
8183;SDS011;4133;48.752;9.088;2022-11-15T08:15:51;2.60;;;1.83;;
8183;SDS011;4133;48.752;9.088;2022-11-15T08:18:16;1.60;;;1.50;;
8183;SDS011;4133;48.752;9.088;2022-11-15T08:20:42;3.70;;;1.63;;
8183;SDS011;4133;48.752;9.088;2022-11-15T08:23:11;3.40;;;1.87;;
8183;SDS011;4133;48.752;9.088;2022-11-15T08:25:38;2.50;;;1.43;;
8183;SDS011;4133;48.752;9.088;2022-11-15T08:28:05;4.67;;;1.43;;
8183;SDS011;4133;48.752;9.088;2022-11-15T08:30:38;2.80;;;1.50;;
8183;SDS011;4133;48.752;9.088;2022-11-15T08:33:09;2.37;;;1.60;;
8183;SDS011;4133;48.752;9.088;2022-11-15T08:35:39;5.00;;;1.70;;
8183;SDS011;4133;48.752;9.088;2022-11-15T08:38:05;2.43;;;1.63;;
8183;SDS011;4133;48.752;9.088;2022-11-15T08:40:31;2.93;;;1.73;;
8183;SDS011;4133;48.752;9.088;2022-11-15T08:42:57;2.70;;;1.90;;
8183;SDS011;4133;48.752;9.088;2022-11-15T08:45:27;3.50;;;1.83;;
8183;SDS011;4133;48.752;9.088;2022-11-15T08:47:53;3.73;;;1.87;;
8183;SDS011;4133;48.752;9.088;2022-11-15T08:50:19;1.77;;;1.60;;
8183;SDS011;4133;48.752;9.088;2022-11-15T08:52:45;3.73;;;1.67;;
8183;SDS011;4133;48.752;9.088;2022-11-15T08:55:13;3.00;;;1.50;;
8183;SDS011;4133;48.752;9.088;2022-11-15T08:57:38;4.30;;;1.70;;
8183;SDS011;4133;48.752;9.088;2022-11-15T09:00:05;3.13;;;1.50;;
8183;SDS011;4133;48.752;9.088;2022-11-15T09:02:31;2.63;;;1.43;;
8183;SDS011;4133;48.752;9.088;2022-11-15T09:04:57;2.03;;;1.23;;
8183;SDS011;4133;48.752;9.088;2022-11-15T09:07:23;2.90;;;1.97;;
8183;SDS011;4133;48.752;9.088;2022-11-15T09:09:49;1.63;;;1.50;;
8183;SDS011;4133;48.752;9.088;2022-11-15T09:12:15;2.83;;;1.67;;
8183;SDS011;4133;48.752;9.088;2022-11-15T09:14:41;2.03;;;1.53;;
8183;SDS011;4133;48.752;9.088;2022-11-15T09:17:07;3.07;;;1.40;;
8183;SDS011;4133;48.752;9.088;2022-11-15T09:19:34;1.73;;;1.43;;
8183;SDS011;4133;48.752;9.088;2022-11-15T09:24:54;1.83;;;1.50;;
8183;SDS011;4133;48.752;9.088;2022-11-15T09:27:20;8.07;;;1.33;;
8183;SDS011;4133;48.752;9.088;2022-11-15T09:29:46;6.93;;;1.40;;
8183;SDS011;4133;48.752;9.088;2022-11-15T09:32:12;4.27;;;1.50;;
8183;SDS011;4133;48.752;9.088;2022-11-15T09:34:38;4.13;;;1.50;;
8183;SDS011;4133;48.752;9.088;2022-11-15T09:37:04;2.70;;;1.33;;
8183;SDS011;4133;48.752;9.088;2022-11-15T09:39:29;5.77;;;1.27;;
8183;SDS011;4133;48.752;9.088;2022-11-15T09:42:03;1.20;;;1.10;;
8183;SDS011;4133;48.752;9.088;2022-11-15T09:44:42;3.03;;;1.20;;
8183;SDS011;4133;48.752;9.088;2022-11-15T09:49:56;4.13;;;1.23;;
8183;SDS011;4133;48.752;9.088;2022-11-15T09:52:23;3.60;;;1.30;;
8183;SDS011;4133;48.752;9.088;2022-11-15T09:54:50;1.73;;;0.93;;
8183;SDS011;4133;48.752;9.088;2022-11-15T09:57:33;1.40;;;1.03;;
8183;SDS011;4133;48.752;9.088;2022-11-15T10:00:09;1.10;;;1.00;;
8183;SDS011;4133;48.752;9.088;2022-11-15T10:05:03;2.50;;;1.07;;
8183;SDS011;4133;48.752;9.088;2022-11-15T10:12:30;2.50;;;1.30;;
8183;SDS011;4133;48.752;9.088;2022-11-15T10:15:01;1.73;;;1.00;;
8183;SDS011;4133;48.752;9.088;2022-11-15T10:22:28;3.67;;;1.03;;
8183;SDS011;4133;48.752;9.088;2022-11-15T10:25:00;2.30;;;1.00;;
8183;SDS011;4133;48.752;9.088;2022-11-15T10:27:26;1.10;;;1.00;;
8183;SDS011;4133;48.752;9.088;2022-11-15T10:29:52;1.27;;;1.17;;
8183;SDS011;4133;48.752;9.088;2022-11-15T10:32:19;3.80;;;1.10;;
8183;SDS011;4133;48.752;9.088;2022-11-15T10:34:46;3.00;;;1.07;;
8183;SDS011;4133;48.752;9.088;2022-11-15T10:37:12;2.00;;;1.10;;
8183;SDS011;4133;48.752;9.088;2022-11-15T10:39:38;1.50;;;1.00;;
8183;SDS011;4133;48.752;9.088;2022-11-15T10:44:49;4.90;;;1.20;;
8183;SDS011;4133;48.752;9.088;2022-11-15T10:47:31;1.87;;;1.30;;
8183;SDS011;4133;48.752;9.088;2022-11-15T10:49:58;1.77;;;1.10;;
8183;SDS011;4133;48.752;9.088;2022-11-15T10:52:24;1.30;;;1.07;;
8183;SDS011;4133;48.752;9.088;2022-11-15T10:54:58;1.43;;;1.00;;
8183;SDS011;4133;48.752;9.088;2022-11-15T10:57:26;2.03;;;1.20;;
8183;SDS011;4133;48.752;9.088;2022-11-15T10:59:54;2.70;;;1.00;;
8183;SDS011;4133;48.752;9.088;2022-11-15T11:04:56;3.53;;;1.50;;
8183;SDS011;4133;48.752;9.088;2022-11-15T11:07:24;2.83;;;1.27;;
8183;SDS011;4133;48.752;9.088;2022-11-15T11:10:01;1.30;;;1.10;;
8183;SDS011;4133;48.752;9.088;2022-11-15T11:12:28;1.40;;;1.13;;
8183;SDS011;4133;48.752;9.088;2022-11-15T11:14:56;3.97;;;1.20;;
8183;SDS011;4133;48.752;9.088;2022-11-15T11:17:25;2.67;;;1.33;;
8183;SDS011;4133;48.752;9.088;2022-11-15T11:25:28;5.07;;;1.20;;
8183;SDS011;4133;48.752;9.088;2022-11-15T11:28:02;2.50;;;1.37;;
8183;SDS011;4133;48.752;9.088;2022-11-15T11:33:05;3.30;;;1.43;;
8183;SDS011;4133;48.752;9.088;2022-11-15T11:35:50;2.83;;;1.20;;
8183;SDS011;4133;48.752;9.088;2022-11-15T11:43:45;2.47;;;1.10;;
8183;SDS011;4133;48.752;9.088;2022-11-15T11:46:29;2.53;;;1.30;;
8183;SDS011;4133;48.752;9.088;2022-11-15T11:49:10;3.10;;;1.10;;
8183;SDS011;4133;48.752;9.088;2022-11-15T11:51:41;2.63;;;1.10;;
8183;SDS011;4133;48.752;9.088;2022-11-15T11:54:17;1.37;;;1.07;;
8183;SDS011;4133;48.752;9.088;2022-11-15T11:56:45;2.77;;;1.30;;
8183;SDS011;4133;48.752;9.088;2022-11-15T12:01:56;2.00;;;0.90;;
8183;SDS011;4133;48.752;9.088;2022-11-15T12:04:30;1.83;;;1.10;;
8183;SDS011;4133;48.752;9.088;2022-11-15T12:06:58;1.47;;;1.00;;
8183;SDS011;4133;48.752;9.088;2022-11-15T12:15:18;2.03;;;0.90;;
8183;SDS011;4133;48.752;9.088;2022-11-15T12:17:36;4.43;;;1.00;;
8183;SDS011;4133;48.752;9.088;2022-11-15T12:20:04;1.30;;;0.93;;
8183;SDS011;4133;48.752;9.088;2022-11-15T12:25:59;0.80;;;0.80;;
8183;SDS011;4133;48.752;9.088;2022-11-15T12:28:42;1.00;;;0.90;;
8183;SDS011;4133;48.752;9.088;2022-11-15T12:33:48;2.03;;;0.70;;
8183;SDS011;4133;48.752;9.088;2022-11-15T12:39:19;1.63;;;1.10;;
8183;SDS011;4133;48.752;9.088;2022-11-15T13:02:18;1.03;;;0.80;;
8183;SDS011;4133;48.752;9.088;2022-11-15T13:04:44;4.17;;;1.00;;
8183;SDS011;4133;48.752;9.088;2022-11-15T13:07:54;1.47;;;0.90;;
8183;SDS011;4133;48.752;9.088;2022-11-15T13:09:56;1.00;;;0.90;;
8183;SDS011;4133;48.752;9.088;2022-11-15T13:14:52;1.00;;;1.00;;
8183;SDS011;4133;48.752;9.088;2022-11-15T13:19:49;1.40;;;1.10;;
8183;SDS011;4133;48.752;9.088;2022-11-15T13:30:35;1.10;;;1.10;;
8183;SDS011;4133;48.752;9.088;2022-11-15T13:33:09;1.10;;;1.00;;
8183;SDS011;4133;48.752;9.088;2022-11-15T13:35:39;2.40;;;1.20;;
8183;SDS011;4133;48.752;9.088;2022-11-15T13:38:06;3.17;;;1.20;;
8183;SDS011;4133;48.752;9.088;2022-11-15T13:40:35;1.33;;;1.23;;
8183;SDS011;4133;48.752;9.088;2022-11-15T13:49:09;1.83;;;1.20;;
8183;SDS011;4133;48.752;9.088;2022-11-15T13:54:18;2.83;;;1.40;;
8183;SDS011;4133;48.752;9.088;2022-11-15T13:56:48;5.90;;;1.43;;
8183;SDS011;4133;48.752;9.088;2022-11-15T13:59:19;1.83;;;1.43;;
8183;SDS011;4133;48.752;9.088;2022-11-15T14:01:49;2.30;;;1.50;;
8183;SDS011;4133;48.752;9.088;2022-11-15T14:04:17;1.27;;;1.17;;
8183;SDS011;4133;48.752;9.088;2022-11-15T14:06:44;1.83;;;1.40;;
8183;SDS011;4133;48.752;9.088;2022-11-15T14:11:37;3.13;;;1.60;;
8183;SDS011;4133;48.752;9.088;2022-11-15T14:14:14;2.57;;;1.40;;
8183;SDS011;4133;48.752;9.088;2022-11-15T14:19:09;2.60;;;1.50;;
8183;SDS011;4133;48.752;9.088;2022-11-15T14:21:35;2.37;;;1.67;;
8183;SDS011;4133;48.752;9.088;2022-11-15T14:24:14;7.17;;;1.70;;
8183;SDS011;4133;48.752;9.088;2022-11-15T14:26:40;2.37;;;1.50;;
8183;SDS011;4133;48.752;9.088;2022-11-15T14:29:26;2.17;;;1.70;;
8183;SDS011;4133;48.752;9.088;2022-11-15T14:31:53;3.93;;;1.57;;
8183;SDS011;4133;48.752;9.088;2022-11-15T14:34:19;2.40;;;1.90;;
8183;SDS011;4133;48.752;9.088;2022-11-15T14:36:47;3.10;;;2.00;;
8183;SDS011;4133;48.752;9.088;2022-11-15T14:39:13;5.10;;;2.50;;
8183;SDS011;4133;48.752;9.088;2022-11-15T14:41:39;8.70;;;2.93;;
8183;SDS011;4133;48.752;9.088;2022-11-15T14:44:05;5.40;;;2.80;;
8183;SDS011;4133;48.752;9.088;2022-11-15T14:46:32;9.83;;;3.17;;
8183;SDS011;4133;48.752;9.088;2022-11-15T14:48:58;5.47;;;3.07;;
8183;SDS011;4133;48.752;9.088;2022-11-15T14:51:24;8.57;;;3.10;;
8183;SDS011;4133;48.752;9.088;2022-11-15T14:53:51;5.10;;;3.20;;
8183;SDS011;4133;48.752;9.088;2022-11-15T14:56:17;9.53;;;3.23;;
8183;SDS011;4133;48.752;9.088;2022-11-15T14:58:43;10.43;;;3.50;;
8183;SDS011;4133;48.752;9.088;2022-11-15T15:01:13;8.70;;;3.20;;
8183;SDS011;4133;48.752;9.088;2022-11-15T15:03:39;7.27;;;3.20;;
8183;SDS011;4133;48.752;9.088;2022-11-15T15:06:06;6.20;;;3.10;;
8183;SDS011;4133;48.752;9.088;2022-11-15T15:08:33;9.17;;;3.53;;
8183;SDS011;4133;48.752;9.088;2022-11-15T15:10:59;7.70;;;3.63;;
8183;SDS011;4133;48.752;9.088;2022-11-15T15:13:25;5.53;;;3.50;;
8183;SDS011;4133;48.752;9.088;2022-11-15T15:15:53;6.50;;;3.13;;
8183;SDS011;4133;48.752;9.088;2022-11-15T15:18:19;10.37;;;3.07;;
8183;SDS011;4133;48.752;9.088;2022-11-15T15:20:47;8.73;;;3.20;;
8183;SDS011;4133;48.752;9.088;2022-11-15T15:25:50;9.50;;;3.60;;
8183;SDS011;4133;48.752;9.088;2022-11-15T15:28:17;5.27;;;3.20;;
8183;SDS011;4133;48.752;9.088;2022-11-15T15:30:43;6.57;;;3.10;;
8183;SDS011;4133;48.752;9.088;2022-11-15T15:33:09;6.33;;;3.10;;
8183;SDS011;4133;48.752;9.088;2022-11-15T15:35:35;7.33;;;3.23;;
8183;SDS011;4133;48.752;9.088;2022-11-15T15:38:01;6.37;;;3.20;;
8183;SDS011;4133;48.752;9.088;2022-11-15T15:40:29;4.27;;;3.47;;
8183;SDS011;4133;48.752;9.088;2022-11-15T15:42:55;5.60;;;3.50;;
8183;SDS011;4133;48.752;9.088;2022-11-15T15:45:21;11.80;;;4.03;;
8183;SDS011;4133;48.752;9.088;2022-11-15T15:47:47;9.63;;;3.63;;
8183;SDS011;4133;48.752;9.088;2022-11-15T15:50:21;9.40;;;3.90;;
8183;SDS011;4133;48.752;9.088;2022-11-15T15:52:48;7.17;;;3.90;;
8183;SDS011;4133;48.752;9.088;2022-11-15T15:55:18;11.73;;;3.77;;
8183;SDS011;4133;48.752;9.088;2022-11-15T15:57:44;7.77;;;3.73;;
8183;SDS011;4133;48.752;9.088;2022-11-15T16:00:11;7.17;;;3.90;;
8183;SDS011;4133;48.752;9.088;2022-11-15T16:02:38;7.77;;;3.67;;
8183;SDS011;4133;48.752;9.088;2022-11-15T16:05:09;5.27;;;3.13;;
8183;SDS011;4133;48.752;9.088;2022-11-15T16:07:46;7.60;;;3.60;;
8183;SDS011;4133;48.752;9.088;2022-11-15T16:12:44;6.40;;;3.67;;
8183;SDS011;4133;48.752;9.088;2022-11-15T16:15:10;6.07;;;3.53;;
8183;SDS011;4133;48.752;9.088;2022-11-15T16:17:37;5.27;;;3.57;;
8183;SDS011;4133;48.752;9.088;2022-11-15T16:20:04;10.03;;;4.30;;
8183;SDS011;4133;48.752;9.088;2022-11-15T16:22:36;8.13;;;4.40;;
8183;SDS011;4133;48.752;9.088;2022-11-15T16:25:02;7.83;;;3.90;;
8183;SDS011;4133;48.752;9.088;2022-11-15T16:27:28;7.63;;;4.10;;
8183;SDS011;4133;48.752;9.088;2022-11-15T16:29:54;6.43;;;3.70;;
8183;SDS011;4133;48.752;9.088;2022-11-15T16:32:24;7.87;;;3.70;;
8183;SDS011;4133;48.752;9.088;2022-11-15T16:34:50;6.80;;;3.60;;
8183;SDS011;4133;48.752;9.088;2022-11-15T16:37:22;8.57;;;5.93;;
8183;SDS011;4133;48.752;9.088;2022-11-15T16:39:54;22.47;;;9.77;;
8183;SDS011;4133;48.752;9.088;2022-11-15T16:42:20;11.00;;;6.93;;
8183;SDS011;4133;48.752;9.088;2022-11-15T16:44:46;5.43;;;4.57;;
8183;SDS011;4133;48.752;9.088;2022-11-15T16:47:15;12.40;;;4.63;;
8183;SDS011;4133;48.752;9.088;2022-11-15T16:49:44;9.53;;;4.60;;
8183;SDS011;4133;48.752;9.088;2022-11-15T16:52:10;11.40;;;4.50;;
8183;SDS011;4133;48.752;9.088;2022-11-15T16:54:36;8.43;;;4.40;;
8183;SDS011;4133;48.752;9.088;2022-11-15T16:57:02;9.53;;;4.07;;
8183;SDS011;4133;48.752;9.088;2022-11-15T17:02:32;10.07;;;4.27;;
8183;SDS011;4133;48.752;9.088;2022-11-15T17:04:58;6.53;;;4.03;;
8183;SDS011;4133;48.752;9.088;2022-11-15T17:07:24;8.90;;;4.60;;
8183;SDS011;4133;48.752;9.088;2022-11-15T17:09:50;7.47;;;4.17;;
8183;SDS011;4133;48.752;9.088;2022-11-15T17:12:16;6.77;;;3.90;;
8183;SDS011;4133;48.752;9.088;2022-11-15T17:14:42;7.83;;;4.57;;
8183;SDS011;4133;48.752;9.088;2022-11-15T17:17:10;11.13;;;4.90;;
8183;SDS011;4133;48.752;9.088;2022-11-15T17:19:36;8.77;;;4.90;;
8183;SDS011;4133;48.752;9.088;2022-11-15T17:22:08;9.33;;;4.70;;
8183;SDS011;4133;48.752;9.088;2022-11-15T17:24:34;7.03;;;4.37;;
8183;SDS011;4133;48.752;9.088;2022-11-15T17:27:00;9.50;;;5.20;;
8183;SDS011;4133;48.752;9.088;2022-11-15T17:29:29;7.30;;;4.90;;
8183;SDS011;4133;48.752;9.088;2022-11-15T17:31:58;9.07;;;4.53;;
8183;SDS011;4133;48.752;9.088;2022-11-15T17:34:24;7.43;;;4.13;;
8183;SDS011;4133;48.752;9.088;2022-11-15T17:36:50;6.70;;;3.97;;
8183;SDS011;4133;48.752;9.088;2022-11-15T17:39:16;7.07;;;3.93;;
8183;SDS011;4133;48.752;9.088;2022-11-15T17:41:44;7.17;;;3.40;;
8183;SDS011;4133;48.752;9.088;2022-11-15T17:44:10;6.80;;;3.67;;
8183;SDS011;4133;48.752;9.088;2022-11-15T17:46:36;6.67;;;3.77;;
8183;SDS011;4133;48.752;9.088;2022-11-15T17:49:04;6.10;;;3.60;;
8183;SDS011;4133;48.752;9.088;2022-11-15T17:51:30;6.33;;;3.43;;